Time;durP1;ratioP1;P1;durP2;ratioP2;P2;SDS_P1;SDS_P2;PMS_P1;PMS_P2;Temp;Humidity;BMP_temperature;BMP_pressure;BME280_temperature;BME280_humidity;BME280_pressure;Samples;Min_cycle;Max_cycle;Signal;HPM_P1;HPM_P2
2021/09/05 00:00:38;;;;;;;8.32;7.50;;;21.50;73.60;;;;;;4960912;28;20042;-85
2021/09/05 00:03:21;;;;;;;7.80;7.07;;;21.50;73.50;;;;;;4976302;28;20030;-85
2021/09/05 00:05:46;;;;;;;7.70;6.97;;;21.50;74.00;;;;;;4976724;28;20405;-84
2021/09/05 00:08:12;;;;;;;8.20;7.40;;;21.40;74.10;;;;;;4975122;28;20026;-85
2021/09/05 00:10:38;;;;;;;8.38;7.57;;;21.30;74.50;;;;;;4959732;28;20031;-85
2021/09/05 00:13:04;;;;;;;9.27;8.07;;;21.20;74.80;;;;;;4955739;28;20023;-85
2021/09/05 00:15:29;;;;;;;9.35;8.32;;;21.10;75.10;;;;;;4957240;29;20122;-84
2021/09/05 00:17:55;;;;;;;8.90;7.68;;;21.10;75.20;;;;;;4955691;28;20056;-85
2021/09/05 00:20:24;;;;;;;9.48;8.00;;;21.10;74.90;;;;;;4957038;28;20489;-84
2021/09/05 00:22:49;;;;;;;8.63;7.72;;;21.20;74.50;;;;;;4957176;28;20078;-84
2021/09/05 00:25:16;;;;;;;9.77;8.52;;;21.20;74.70;;;;;;4957186;29;20031;-85
2021/09/05 00:27:41;;;;;;;8.73;7.82;;;21.20;74.70;;;;;;4956903;28;20142;-85
2021/09/05 00:30:08;;;;;;;9.98;8.27;;;21.20;74.40;;;;;;4956872;29;20066;-85
2021/09/05 00:32:34;;;;;;;8.85;7.82;;;21.20;74.40;;;;;;4956860;28;20034;-86
2021/09/05 00:35:00;;;;;;;9.75;8.13;;;21.20;74.40;;;;;;4956950;29;20023;-85
2021/09/05 00:37:28;;;;;;;9.27;7.93;;;21.10;74.70;;;;;;4957022;29;20024;-85
2021/09/05 00:39:54;;;;;;;10.10;7.95;;;21.00;74.80;;;;;;4955469;28;20063;-85
2021/09/05 00:42:26;;;;;;;9.35;7.30;;;21.00;74.80;;;;;;4995605;28;20034;-85
2021/09/05 00:44:53;;;;;;;8.05;7.22;;;21.00;74.90;;;;;;4995484;28;20034;-85
2021/09/05 00:47:19;;;;;;;9.77;7.72;;;21.00;74.80;;;;;;4982053;28;20055;-85
2021/09/05 00:49:44;;;;;;;9.27;8.15;;;21.00;74.90;;;;;;4956782;28;20126;-86
2021/09/05 00:52:11;;;;;;;9.50;8.50;;;20.90;74.80;;;;;;4956943;28;20024;-85
2021/09/05 00:54:41;;;;;;;9.82;8.45;;;21.00;74.80;;;;;;4956551;28;20035;-85
2021/09/05 00:57:11;;;;;;;;;;;21.00;75.00;;;;;;4957234;28;20119;-85
2021/09/05 00:59:51;;;;;;;9.85;8.73;;;21.00;74.90;;;;;;4956600;28;19910;-85
2021/09/05 01:02:17;;;;;;;12.88;9.40;;;21.00;74.90;;;;;;4956700;28;20050;-85
2021/09/05 01:04:43;;;;;;;11.43;9.93;;;21.00;74.80;;;;;;4955327;29;20573;-85
2021/09/05 01:07:10;;;;;;;12.77;10.35;;;21.00;74.90;;;;;;4956514;28;20434;-85
2021/09/05 01:09:36;;;;;;;12.93;10.15;;;21.00;74.90;;;;;;4955526;28;20032;-85
2021/09/05 01:12:02;;;;;;;13.55;10.57;;;21.00;74.80;;;;;;4956742;28;20111;-85
2021/09/05 01:14:28;;;;;;;15.35;11.88;;;21.00;74.70;;;;;;4956244;28;20031;-85
2021/09/05 01:16:54;;;;;;;13.55;11.10;;;21.00;74.60;;;;;;4956364;28;20038;-85
2021/09/05 01:19:22;;;;;;;13.93;10.27;;;21.00;74.70;;;;;;4956536;28;20046;-85
2021/09/05 01:21:50;;;;;;;15.10;10.98;;;20.90;74.60;;;;;;4957125;28;20118;-85
2021/09/05 01:24:17;;;;;;;12.63;10.38;;;20.90;74.70;;;;;;4964142;28;20035;-85
2021/09/05 01:26:45;;;;;;;14.13;10.80;;;20.90;75.00;;;;;;4998796;28;20034;-85
2021/09/05 01:29:11;;;;;;;11.13;9.60;;;20.80;74.90;;;;;;4998653;28;20072;-85
2021/09/05 01:31:42;;;;;;;11.77;9.95;;;20.80;75.20;;;;;;4998676;28;20117;-85
2021/09/05 01:34:13;;;;;;;14.30;11.32;;;20.80;75.20;;;;;;4969643;28;20026;-84
2021/09/05 01:36:40;;;;;;;13.02;10.93;;;20.80;75.50;;;;;;4966944;28;20035;-85
2021/09/05 01:39:08;;;;;;;14.75;11.77;;;20.70;75.30;;;;;;4958143;28;20407;-86
2021/09/05 01:41:34;;;;;;;13.45;11.40;;;20.60;75.60;;;;;;4986580;28;20146;-86
2021/09/05 01:44:02;;;;;;;12.40;10.57;;;20.60;75.60;;;;;;4998538;28;20027;-85
2021/09/05 01:46:28;;;;;;;12.77;11.20;;;20.50;75.60;;;;;;4982533;28;20050;-85
2021/09/05 01:48:54;;;;;;;16.35;12.00;;;20.50;75.70;;;;;;4959353;28;20486;-86
2021/09/05 01:51:22;;;;;;;16.30;12.02;;;20.50;75.80;;;;;;4959420;28;20031;-85
2021/09/05 01:53:48;;;;;;;13.32;11.25;;;20.50;75.70;;;;;;4959572;28;20051;-85
2021/09/05 01:56:14;;;;;;;14.23;12.27;;;20.40;75.80;;;;;;4959324;28;20398;-85
2021/09/05 01:58:40;;;;;;;13.70;11.68;;;20.40;75.80;;;;;;4959370;29;20031;-85
2021/09/05 02:01:06;;;;;;;17.38;12.27;;;20.30;75.90;;;;;;4959176;28;20054;-85
2021/09/05 02:03:31;;;;;;;13.80;11.43;;;20.30;76.60;;;;;;4959256;28;20031;-85
2021/09/05 02:05:57;;;;;;;15.85;12.80;;;20.30;76.50;;;;;;4958044;28;20031;-85
2021/09/05 02:08:25;;;;;;;15.70;12.20;;;20.20;76.90;;;;;;4959195;28;20059;-84
2021/09/05 02:10:51;;;;;;;15.98;12.40;;;20.10;77.10;;;;;;4959015;28;20123;-85
2021/09/05 02:13:16;;;;;;;16.15;12.18;;;20.20;76.80;;;;;;4959188;28;20031;-86
2021/09/05 02:15:42;;;;;;;15.82;12.70;;;20.10;76.90;;;;;;4959235;28;20023;-85
2021/09/05 02:18:08;;;;;;;17.33;13.25;;;20.20;77.00;;;;;;4967606;28;20505;-85
2021/09/05 02:20:34;;;;;;;17.85;13.55;;;20.10;76.60;;;;;;4978391;28;20118;-84
2021/09/05 02:23:00;;;;;;;16.63;12.93;;;20.20;76.80;;;;;;4973987;28;20071;-85
2021/09/05 02:25:26;;;;;;;15.93;12.93;;;20.20;76.30;;;;;;4958862;28;20037;-85
2021/09/05 02:27:51;;;;;;;18.50;13.68;;;20.20;76.40;;;;;;4957709;29;20035;-86
2021/09/05 02:30:17;;;;;;;14.32;12.80;;;20.20;76.50;;;;;;4958751;29;20098;-84
2021/09/05 02:32:43;;;;;;;15.85;13.65;;;20.20;76.50;;;;;;4957732;28;20063;-86
2021/09/05 02:35:10;;;;;;;15.52;13.20;;;20.20;76.60;;;;;;4958743;28;20028;-85
2021/09/05 02:37:38;;;;;;;15.02;12.65;;;20.10;76.20;;;;;;4958505;28;20023;-85
2021/09/05 02:40:07;;;;;;;16.63;13.57;;;20.00;76.20;;;;;;4961309;28;20034;-85
2021/09/05 02:42:35;;;;;;;17.17;13.70;;;20.00;76.20;;;;;;4963781;28;20463;-84
2021/09/05 02:45:03;;;;;;;20.67;14.05;;;20.00;76.50;;;;;;4958489;28;20525;-85
2021/09/05 02:47:29;;;;;;;16.60;13.63;;;20.00;76.70;;;;;;4958232;28;20035;-85
2021/09/05 02:49:55;;;;;;;16.50;13.40;;;20.00;76.30;;;;;;4958400;28;20418;-85
2021/09/05 02:52:21;;;;;;;15.75;12.63;;;20.00;76.30;;;;;;4957164;29;20371;-85
2021/09/05 02:54:47;;;;;;;17.90;13.07;;;20.00;76.30;;;;;;4957251;28;20090;-85
2021/09/05 02:57:13;;;;;;;16.90;13.60;;;20.00;76.10;;;;;;4957101;29;20046;-85
2021/09/05 02:59:41;;;;;;;17.05;14.05;;;20.00;76.10;;;;;;4958337;29;20031;-85
2021/09/05 03:02:07;;;;;;;16.45;12.75;;;20.00;76.70;;;;;;4968721;28;20043;-85
2021/09/05 03:04:33;;;;;;;16.05;13.45;;;20.00;76.20;;;;;;4958224;28;20031;-85
2021/09/05 03:06:59;;;;;;;17.15;12.27;;;19.90;76.40;;;;;;4958192;28;20173;-85
2021/09/05 03:09:25;;;;;;;17.25;12.60;;;19.90;76.30;;;;;;4972920;28;20062;-85
2021/09/05 03:11:50;;;;;;;13.85;11.75;;;19.80;76.20;;;;;;4957962;28;20055;-85
2021/09/05 03:14:16;;;;;;;14.98;12.55;;;19.80;76.30;;;;;;4972793;28;20031;-85
2021/09/05 03:16:44;;;;;;;16.52;11.75;;;19.80;76.10;;;;;;4957971;28;20054;-86
2021/09/05 03:19:10;;;;;;;14.70;11.88;;;19.80;76.10;;;;;;4957510;28;20801;-85
2021/09/05 03:21:37;;;;;;;15.25;12.48;;;19.70;76.30;;;;;;4957929;28;20031;-85
2021/09/05 03:24:04;;;;;;;15.25;12.35;;;19.80;76.30;;;;;;4957831;28;20022;-86
2021/09/05 03:26:29;;;;;;;15.30;12.13;;;19.80;76.10;;;;;;4957536;28;20031;-85
2021/09/05 03:28:55;;;;;;;13.32;10.88;;;19.70;76.40;;;;;;4957616;29;20062;-86
2021/09/05 03:31:21;;;;;;;13.48;11.45;;;19.70;76.30;;;;;;4957842;28;20027;-85
2021/09/05 03:33:49;;;;;;;12.93;10.80;;;19.60;76.50;;;;;;4957393;28;20031;-85
2021/09/05 03:36:15;;;;;;;16.13;12.65;;;19.70;76.30;;;;;;4956358;28;20406;-85
2021/09/05 03:38:41;;;;;;;13.68;12.20;;;19.60;76.60;;;;;;4957658;28;20037;-85
2021/09/05 03:41:06;;;;;;;16.35;12.27;;;19.50;76.60;;;;;;4976953;28;20038;-85
2021/09/05 03:43:32;;;;;;;13.65;10.68;;;19.40;76.30;;;;;;4996304;28;20037;-86
2021/09/05 03:45:58;;;;;;;15.68;12.48;;;19.30;77.00;;;;;;4963822;28;20074;-86
2021/09/05 03:48:23;;;;;;;14.35;11.77;;;19.40;76.90;;;;;;4957055;28;20034;-86
2021/09/05 03:51:02;;;;;;;;;;;;;;;;;;;;;
2021/09/05 03:53:27;;;;;;;13.27;11.77;;;19.40;76.80;;;;;;4957246;28;20023;-86
2021/09/05 03:55:54;;;;;;;14.80;11.50;;;19.40;76.70;;;;;;4957368;28;20065;-86
2021/09/05 03:58:20;;;;;;;14.70;11.63;;;19.40;77.00;;;;;;4957513;28;20027;-85
2021/09/05 04:00:45;;;;;;;14.27;11.20;;;19.40;77.10;;;;;;4957292;28;20082;-86
2021/09/05 04:03:11;;;;;;;15.35;12.80;;;19.30;76.90;;;;;;4957029;28;20019;-86
2021/09/05 04:05:37;;;;;;;16.10;13.40;;;19.30;77.30;;;;;;4956977;28;20039;-86
2021/09/05 04:10:36;;;;;;;15.88;13.25;;;19.30;77.10;;;;;;4957730;28;20118;-86
2021/09/05 04:13:07;;;;;;;14.43;12.27;;;19.40;77.20;;;;;;4957050;28;20031;-86
2021/09/05 04:15:33;;;;;;;14.60;12.07;;;19.40;76.80;;;;;;4957196;28;20072;-86
2021/09/05 04:17:58;;;;;;;14.10;11.68;;;19.40;76.70;;;;;;4955767;29;20055;-86
2021/09/05 04:20:24;;;;;;;14.70;11.85;;;19.30;76.90;;;;;;4956862;28;20068;-85
2021/09/05 04:22:50;;;;;;;15.30;12.55;;;19.40;76.50;;;;;;4957242;28;20015;-86
2021/09/05 04:25:17;;;;;;;15.98;12.70;;;19.40;76.60;;;;;;4957193;28;20031;-86
2021/09/05 04:27:43;;;;;;;14.88;12.07;;;19.40;77.00;;;;;;4956797;28;20031;-86
2021/09/05 04:30:11;;;;;;;15.18;12.68;;;19.40;76.60;;;;;;4955534;28;20114;-86
2021/09/05 04:32:38;;;;;;;14.05;12.07;;;19.30;76.90;;;;;;4956663;28;20020;-86
2021/09/05 04:35:04;;;;;;;15.35;12.43;;;19.40;76.70;;;;;;4956975;28;20070;-86
2021/09/05 04:37:30;;;;;;;16.10;12.23;;;19.50;76.60;;;;;;4957078;28;20034;-85
2021/09/05 04:39:56;;;;;;;14.45;12.45;;;19.40;77.10;;;;;;4957505;28;20042;-85
2021/09/05 04:42:22;;;;;;;14.77;12.35;;;19.30;77.10;;;;;;4995651;28;20045;-86
2021/09/05 04:44:48;;;;;;;14.85;12.00;;;19.30;77.40;;;;;;4995738;28;20137;-86
2021/09/05 04:47:14;;;;;;;17.10;11.85;;;19.20;77.50;;;;;;4981182;28;20039;-87
2021/09/05 04:49:39;;;;;;;16.80;11.73;;;19.20;77.60;;;;;;4956807;28;20087;-87
2021/09/05 04:52:06;;;;;;;14.95;12.40;;;19.30;77.50;;;;;;4970376;28;20051;-85
2021/09/05 04:54:33;;;;;;;16.10;12.38;;;19.40;77.30;;;;;;4955510;29;20027;-86
2021/09/05 04:56:59;;;;;;;16.92;11.85;;;19.50;77.00;;;;;;4958952;28;20064;-86
2021/09/05 04:59:24;;;;;;;15.82;11.98;;;19.40;77.40;;;;;;4960378;28;20035;-86
2021/09/05 05:01:50;;;;;;;16.67;11.43;;;19.40;77.80;;;;;;4960187;28;20037;-86
2021/09/05 05:04:16;;;;;;;12.70;9.52;;;19.50;77.80;;;;;;4960504;28;20070;-86
2021/09/05 05:06:42;;;;;;;14.70;9.82;;;19.30;78.50;;;;;;4960580;29;20020;-86
2021/09/05 05:09:12;;;;;;;12.50;9.25;;;19.30;78.50;;;;;;4958665;28;20126;-86
2021/09/05 05:11:41;;;;;;;13.82;10.02;;;19.30;78.60;;;;;;4960533;29;20081;-86
2021/09/05 05:14:08;;;;;;;17.42;11.27;;;19.30;79.10;;;;;;4968509;28;20035;-85
2021/09/05 05:16:34;;;;;;;14.55;11.15;;;19.20;79.70;;;;;;4960243;28;20023;-86
2021/09/05 05:19:00;;;;;;;17.67;11.57;;;19.10;80.20;;;;;;4959868;28;20051;-87
2021/09/05 05:21:27;;;;;;;16.45;11.00;;;19.00;80.70;;;;;;4977511;28;20520;-86
2021/09/05 05:23:54;;;;;;;15.40;9.50;;;19.10;80.50;;;;;;4978042;28;20034;-86
2021/09/05 05:26:20;;;;;;;13.95;9.85;;;19.00;80.40;;;;;;4979492;28;20029;-86
2021/09/05 05:28:46;;;;;;;10.32;8.00;;;19.00;80.50;;;;;;4979277;28;20031;-86
2021/09/05 05:31:11;;;;;;;11.10;8.00;;;19.00;80.70;;;;;;4968676;28;20045;-86
2021/09/05 05:33:37;;;;;;;13.55;9.18;;;19.00;80.80;;;;;;4959739;29;20059;-85
2021/09/05 05:36:03;;;;;;;13.43;8.02;;;19.00;80.60;;;;;;4959608;28;20031;-86
2021/09/05 05:38:29;;;;;;;11.80;9.23;;;19.00;80.20;;;;;;4974594;28;20024;-85
2021/09/05 05:40:54;;;;;;;12.52;8.68;;;19.20;80.50;;;;;;4965422;28;20494;-86
2021/09/05 05:43:20;;;;;;;9.88;8.50;;;19.20;80.30;;;;;;4959729;29;20372;-87
2021/09/05 05:45:46;;;;;;;10.73;8.88;;;19.20;80.10;;;;;;4959644;28;20166;-86
2021/09/05 05:48:13;;;;;;;10.90;8.32;;;19.10;80.20;;;;;;4958258;29;20031;-86
2021/09/05 05:50:39;;;;;;;11.48;8.52;;;19.10;80.70;;;;;;4959234;28;20497;-86
2021/09/05 05:53:04;;;;;;;9.45;8.45;;;19.10;80.10;;;;;;4959687;28;20085;-86
2021/09/05 05:55:30;;;;;;;10.48;8.70;;;19.10;80.30;;;;;;4959480;28;20024;-85
2021/09/05 05:57:56;;;;;;;13.02;8.90;;;19.10;80.50;;;;;;4959319;28;20458;-86
2021/09/05 06:00:26;;;;;;;12.05;8.57;;;19.10;80.60;;;;;;4959521;29;20094;-85
2021/09/05 06:02:53;;;;;;;9.65;8.65;;;19.00;80.40;;;;;;4957404;28;20106;-86
2021/09/05 06:05:19;;;;;;;10.20;8.27;;;19.20;80.20;;;;;;4952494;28;20558;-86
2021/09/05 06:07:44;;;;;;;8.65;7.63;;;19.10;79.80;;;;;;4957587;28;20094;-85
2021/09/05 06:10:10;;;;;;;10.00;9.00;;;19.10;80.40;;;;;;4986489;28;20035;-86
2021/09/05 06:12:36;;;;;;;10.13;9.13;;;19.10;80.70;;;;;;4978535;28;20023;-85
2021/09/05 06:15:02;;;;;;;9.60;8.23;;;19.10;80.40;;;;;;5006420;28;20071;-85
2021/09/05 06:17:28;;;;;;;8.95;8.05;;;19.10;80.20;;;;;;4958919;28;20047;-86
2021/09/05 06:19:54;;;;;;;10.20;8.23;;;19.20;80.00;;;;;;4958868;29;20035;-85
2021/09/05 06:22:19;;;;;;;9.73;8.73;;;19.30;79.30;;;;;;4957868;28;20046;-85
2021/09/05 06:24:45;;;;;;;8.95;8.05;;;19.30;79.10;;;;;;4959041;28;20486;-87
2021/09/05 06:27:11;;;;;;;9.13;8.23;;;19.40;79.20;;;;;;4958716;28;20039;-86
2021/09/05 06:29:37;;;;;;;9.32;8.43;;;19.40;79.10;;;;;;4958832;29;20100;-86
2021/09/05 06:32:03;;;;;;;9.45;8.18;;;19.50;79.40;;;;;;4957322;28;20031;-86
2021/09/05 06:34:29;;;;;;;8.63;7.72;;;19.50;78.70;;;;;;4957027;28;20031;-86
2021/09/05 06:36:55;;;;;;;9.18;8.27;;;19.50;79.00;;;;;;4970390;28;20038;-85
2021/09/05 06:39:21;;;;;;;10.50;8.27;;;19.50;79.60;;;;;;4974157;28;20065;-87
2021/09/05 06:41:46;;;;;;;9.50;8.60;;;19.60;79.00;;;;;;4978107;28;20035;-89
2021/09/05 06:44:12;;;;;;;9.57;8.63;;;19.60;79.00;;;;;;4974492;28;20058;-86
2021/09/05 06:46:38;;;;;;;9.13;8.20;;;19.70;77.90;;;;;;4977883;28;20023;-88
2021/09/05 06:49:04;;;;;;;9.23;8.00;;;19.70;78.30;;;;;;4971352;28;20804;-89
2021/09/05 07:00:45;;;;;;;9.10;8.20;;;19.50;78.40;;;;;;5071088;28;20413;-88
2021/09/05 07:03:11;;;;;;;9.20;8.30;;;19.40;79.20;;;;;;5053172;28;20029;-87
2021/09/05 07:05:36;;;;;;;9.35;8.45;;;19.70;78.90;;;;;;5051576;28;20025;-87
2021/09/05 07:08:02;;;;;;;9.95;8.18;;;19.90;77.80;;;;;;5053298;28;20035;-90
2021/09/05 07:10:28;;;;;;;8.98;8.02;;;20.30;77.00;;;;;;5051310;28;20746;-88
2021/09/05 07:12:53;;;;;;;8.93;8.02;;;20.50;76.00;;;;;;5054078;28;20029;-86
2021/09/05 07:15:19;;;;;;;9.48;8.48;;;20.80;75.20;;;;;;5063869;28;20024;-87
2021/09/05 07:17:45;;;;;;;8.80;7.95;;;20.70;75.50;;;;;;5071610;28;20072;-88
2021/09/05 07:20:11;;;;;;;9.25;8.35;;;20.60;75.80;;;;;;5068354;28;20522;-84
2021/09/05 07:22:37;;;;;;;9.38;8.35;;;20.70;75.90;;;;;;5084243;28;20037;-86
2021/09/05 07:25:03;;;;;;;9.25;8.23;;;21.00;75.10;;;;;;5068865;28;20502;-88
2021/09/05 07:27:30;;;;;;;9.77;8.88;;;21.30;74.50;;;;;;5071017;28;20033;-88
2021/09/05 07:29:56;;;;;;;9.55;8.65;;;21.40;74.00;;;;;;5069538;28;20032;-89
2021/09/05 07:32:22;;;;;;;9.02;8.13;;;21.40;74.40;;;;;;5071262;28;20103;-89
2021/09/05 07:34:48;;;;;;;8.98;8.07;;;21.80;72.80;;;;;;5067677;28;20491;-85
2021/09/05 07:37:14;;;;;;;8.70;7.90;;;23.10;69.70;;;;;;5087524;28;20028;-82
2021/09/05 07:39:40;;;;;;;8.88;8.05;;;25.00;63.40;;;;;;5087957;28;20486;-83
2021/09/05 07:42:06;;;;;;;8.88;8.07;;;26.10;60.10;;;;;;5088838;28;20069;-83
2021/09/05 07:44:32;;;;;;;10.10;9.20;;;26.80;57.30;;;;;;5090379;28;20074;-84
2021/09/05 07:46:59;;;;;;;8.95;8.05;;;27.80;55.30;;;;;;5076119;28;20024;-83
2021/09/05 07:49:25;;;;;;;8.52;7.80;;;28.80;52.50;;;;;;5071548;28;20643;-84
2021/09/05 07:51:51;;;;;;;8.75;8.02;;;29.70;50.00;;;;;;5071392;28;20049;-82
2021/09/05 07:54:17;;;;;;;9.15;8.35;;;30.30;47.80;;;;;;5065440;28;20017;-82
2021/09/05 07:56:42;;;;;;;10.32;9.45;;;30.50;47.90;;;;;;5053652;28;20479;-82
2021/09/05 07:59:08;;;;;;;10.45;9.45;;;31.10;46.40;;;;;;5067387;28;20189;-83
2021/09/05 08:01:34;;;;;;;9.15;8.43;;;31.40;45.50;;;;;;5070665;28;20441;-83
2021/09/05 08:04:00;;;;;;;8.93;8.23;;;31.80;44.00;;;;;;5070542;28;20025;-83
2021/09/05 08:06:26;;;;;;;9.88;9.07;;;32.30;43.60;;;;;;5070514;28;20028;-81
2021/09/05 08:08:52;;;;;;;9.80;9.00;;;32.60;42.80;;;;;;5051417;28;20025;-89
2021/09/05 08:11:18;;;;;;;9.63;8.82;;;31.90;44.60;;;;;;5058337;28;20074;-90
2021/09/05 08:13:44;;;;;;;10.48;9.48;;;32.10;44.10;;;;;;5048061;28;20029;-91
2021/09/05 08:16:09;;;;;;;10.30;9.43;;;32.50;42.50;;;;;;5049605;28;20032;-90
2021/09/05 08:18:37;;;;;;;9.98;9.05;;;32.80;43.20;;;;;;5037614;28;20025;-88
2021/09/05 08:21:04;;;;;;;10.73;9.73;;;32.40;43.10;;;;;;5051768;28;20029;-88
2021/09/05 08:23:30;;;;;;;9.45;8.65;;;32.60;43.50;;;;;;5037568;28;20055;-89
2021/09/05 08:25:56;;;;;;;8.82;8.13;;;33.10;42.90;;;;;;5038357;28;20033;-88
2021/09/05 08:28:22;;;;;;;7.93;7.32;;;33.50;42.40;;;;;;5046102;28;20029;-90
2021/09/05 08:30:48;;;;;;;9.60;8.70;;;33.60;42.40;;;;;;5045755;28;20037;-90
2021/09/05 08:33:18;;;;;;;9.75;8.95;;;33.80;41.40;;;;;;5052369;28;20021;-90
2021/09/05 08:35:48;;;;;;;8.48;7.88;;;33.60;41.80;;;;;;5050396;28;20063;-90
2021/09/05 08:38:14;;;;;;;9.70;8.90;;;33.30;43.30;;;;;;5055824;28;20025;-90
2021/09/05 08:40:42;;;;;;;9.85;9.05;;;33.10;42.90;;;;;;5061166;28;20414;-89
2021/09/05 08:43:09;;;;;;;8.50;7.72;;;33.20;42.90;;;;;;5065110;28;20618;-90
2021/09/05 08:45:36;;;;;;;9.48;8.68;;;33.40;42.70;;;;;;5065358;28;20056;-90
2021/09/05 08:48:03;;;;;;;10.10;9.20;;;33.40;43.20;;;;;;5038392;28;20018;-82
2021/09/05 08:50:29;;;;;;;10.23;9.30;;;33.60;42.70;;;;;;5043230;28;20029;-86
2021/09/05 08:52:55;;;;;;;9.90;9.10;;;33.30;42.90;;;;;;5047559;28;20503;-84
2021/09/05 08:55:21;;;;;;;10.57;9.48;;;33.00;43.60;;;;;;5045427;28;20071;-83
2021/09/05 08:57:47;;;;;;;10.20;9.32;;;32.50;44.80;;;;;;5051646;28;20029;-85
2021/09/05 09:00:13;;;;;;;10.60;9.73;;;32.20;44.80;;;;;;5050817;28;20049;-86
2021/09/05 09:02:45;;;;;;;11.38;10.27;;;31.70;45.30;;;;;;5037035;28;20044;-86
2021/09/05 09:05:12;;;;;;;11.38;10.38;;;31.70;46.10;;;;;;5036693;28;20093;-86
2021/09/05 09:07:47;;;;;;;12.00;10.85;;;31.70;45.90;;;;;;5052266;28;20029;-86
2021/09/05 09:10:14;;;;;;;13.10;11.75;;;31.90;44.90;;;;;;5036785;28;20087;-87
2021/09/05 09:12:48;;;;;;;11.75;10.65;;;32.10;44.80;;;;;;5037168;28;20032;-89
2021/09/05 09:15:32;;;;;;;11.38;10.23;;;32.10;45.60;;;;;;5034729;28;21808;-80
2021/09/05 09:17:58;;;;;;;11.57;10.45;;;32.70;44.10;;;;;;5049503;28;20022;-85
2021/09/05 09:20:42;;;;;;;10.98;10.02;;;33.30;43.90;;;;;;5049528;28;20025;-90
2021/09/05 09:23:09;;;;;;;11.07;10.00;;;33.80;43.20;;;;;;5045937;28;20090;-87
2021/09/05 09:25:35;;;;;;;9.65;8.75;;;34.20;41.80;;;;;;5036484;28;20041;-85
2021/09/05 09:28:01;;;;;;;8.50;7.70;;;34.60;41.10;;;;;;5037703;28;20032;-81
2021/09/05 09:30:35;;;;;;;8.27;7.45;;;35.00;40.00;;;;;;5041108;28;20039;-86
2021/09/05 09:33:01;;;;;;;8.45;7.70;;;35.50;38.70;;;;;;5054956;28;20120;-85
2021/09/05 09:35:45;;;;;;;7.78;7.07;;;35.70;38.80;;;;;;5054725;28;20064;-86
2021/09/05 09:38:16;;;;;;;7.60;6.90;;;35.90;38.00;;;;;;5056290;28;20025;-86
2021/09/05 09:40:42;;;;;;;8.75;7.55;;;36.20;36.80;;;;;;5061526;28;20029;-86
2021/09/05 09:43:19;;;;;;;8.02;7.38;;;36.40;35.80;;;;;;5051252;28;20033;-86
2021/09/05 09:45:45;;;;;;;4.60;4.20;;;36.40;36.10;;;;;;5051260;28;20128;-86
2021/09/05 09:48:20;;;;;;;4.80;4.40;;;36.50;34.80;;;;;;5050334;28;20451;-86
2021/09/05 09:50:46;;;;;;;2.67;2.00;;;36.30;35.20;;;;;;5035304;28;20037;-87
2021/09/05 09:53:13;;;;;;;3.50;3.20;;;36.60;33.00;;;;;;5056077;28;20104;-86
2021/09/05 09:55:41;;;;;;;3.78;3.35;;;36.60;33.00;;;;;;5055690;28;20555;-86
2021/09/05 09:58:07;;;;;;;4.45;4.07;;;36.60;34.20;;;;;;5054325;28;20021;-88
2021/09/05 10:00:34;;;;;;;5.68;4.60;;;36.60;35.10;;;;;;5047022;28;20365;-88
2021/09/05 10:03:00;;;;;;;5.28;4.88;;;36.40;35.20;;;;;;5035739;28;20024;-87
2021/09/05 10:05:30;;;;;;;5.93;5.43;;;35.60;36.60;;;;;;5035334;28;20387;-87
2021/09/05 10:07:56;;;;;;;5.60;5.00;;;34.30;38.50;;;;;;5035937;28;20476;-87
2021/09/05 10:10:24;;;;;;;5.70;5.20;;;33.70;40.20;;;;;;5035449;28;20535;-88
2021/09/05 10:12:53;;;;;;;5.15;4.65;;;33.00;39.40;;;;;;5035799;28;20454;-87
2021/09/05 10:15:20;;;;;;;4.15;3.75;;;32.50;42.00;;;;;;5035257;28;20017;-86
2021/09/05 10:17:46;;;;;;;4.18;3.78;;;32.10;42.80;;;;;;5034135;28;20021;-87
2021/09/05 10:20:12;;;;;;;4.70;4.00;;;31.80;43.40;;;;;;5035845;28;20438;-87
2021/09/05 10:22:38;;;;;;;5.05;3.97;;;31.60;42.50;;;;;;5035138;28;20159;-86
2021/09/05 10:25:05;;;;;;;4.30;3.90;;;31.30;43.40;;;;;;5055488;28;20107;-87
2021/09/05 10:27:39;;;;;;;4.00;3.60;;;30.90;44.60;;;;;;5048695;28;20156;-88
2021/09/05 10:30:08;;;;;;;4.35;3.70;;;30.60;44.80;;;;;;5035459;28;20095;-86
2021/09/05 10:32:52;;;;;;;5.05;3.60;;;30.40;45.30;;;;;;5033918;28;20056;-87
2021/09/05 10:35:29;;;;;;;3.80;3.50;;;30.40;45.10;;;;;;5033890;28;20412;-87
2021/09/05 10:38:21;;;;;;;3.65;3.35;;;30.40;45.50;;;;;;5035445;28;20506;-87
2021/09/05 10:40:57;;;;;;;3.92;3.53;;;30.30;46.20;;;;;;5035419;28;20488;-87
2021/09/05 10:43:44;;;;;;;3.97;2.83;;;30.10;44.80;;;;;;5035100;28;20040;-87
2021/09/05 10:46:09;;;;;;;3.65;3.30;;;30.10;46.50;;;;;;5035622;28;20094;-89
2021/09/05 10:48:37;;;;;;;3.85;3.25;;;29.80;44.80;;;;;;5036024;28;20434;-88
2021/09/05 10:51:14;;;;;;;3.85;2.60;;;29.70;46.30;;;;;;5035908;28;20487;-89
2021/09/05 10:54:17;;;;;;;2.83;2.53;;;29.70;47.10;;;;;;5035794;28;20024;-80
2021/09/05 10:56:44;;;;;;;3.20;2.80;;;29.80;46.70;;;;;;5038219;28;20511;-82
2021/09/05 10:59:21;;;;;;;3.10;2.67;;;29.70;46.20;;;;;;5044076;28;20059;-83
2021/09/05 11:01:47;;;;;;;3.70;3.28;;;29.70;47.90;;;;;;5038775;28;20059;-81
2021/09/05 11:04:14;;;;;;;3.25;2.95;;;29.60;46.80;;;;;;5042939;28;20482;-83
2021/09/05 11:06:45;;;;;;;4.07;3.15;;;29.50;46.90;;;;;;5042793;28;20025;-84
2021/09/05 11:09:23;;;;;;;3.42;3.13;;;29.60;47.30;;;;;;5044314;28;20022;-83
2021/09/05 11:12:09;;;;;;;3.88;3.25;;;29.60;47.30;;;;;;5044195;28;20052;-81
2021/09/05 11:14:37;;;;;;;4.28;3.30;;;29.60;48.20;;;;;;5037212;28;20512;-82
2021/09/05 11:17:12;;;;;;;3.90;2.97;;;29.80;48.70;;;;;;5042835;28;20080;-86
2021/09/05 11:19:43;;;;;;;3.25;2.83;;;29.80;47.80;;;;;;5046749;28;20507;-84
2021/09/05 11:22:16;;;;;;;4.07;3.17;;;29.70;46.90;;;;;;5042607;28;20060;-85
2021/09/05 11:24:43;;;;;;;5.10;2.88;;;29.50;48.10;;;;;;5047387;28;20024;-82
2021/09/05 11:27:10;;;;;;;3.95;2.80;;;29.60;48.60;;;;;;5053506;28;20029;-84
2021/09/05 11:29:40;;;;;;;3.40;3.10;;;29.70;47.20;;;;;;5054474;28;20495;-82
2021/09/05 11:32:10;;;;;;;2.92;2.55;;;29.60;47.00;;;;;;5038991;28;20053;-82
2021/09/05 11:34:36;;;;;;;3.33;3.03;;;29.50;47.70;;;;;;5036133;28;20451;-85
2021/09/05 11:37:03;;;;;;;4.50;3.30;;;29.60;46.80;;;;;;5037493;28;20025;-85
2021/09/05 11:39:29;;;;;;;3.60;3.20;;;29.50;47.60;;;;;;5034980;28;20617;-86
2021/09/05 11:41:57;;;;;;;2.92;2.53;;;29.50;48.10;;;;;;5068249;28;20478;-86
2021/09/05 11:44:36;;;;;;;3.60;2.65;;;29.60;48.30;;;;;;5056223;28;20025;-88
2021/09/05 11:47:10;;;;;;;3.15;2.75;;;29.50;47.20;;;;;;5055916;28;20043;-88
2021/09/05 11:49:46;;;;;;;2.33;2.08;;;29.50;47.70;;;;;;5055079;28;20112;-89
2021/09/05 11:52:17;;;;;;;3.45;3.00;;;29.40;46.00;;;;;;5038832;28;20116;-87
2021/09/05 11:54:47;;;;;;;2.80;2.50;;;29.40;47.70;;;;;;5039188;28;20091;-83
2021/09/05 11:57:13;;;;;;;2.90;2.65;;;29.40;47.00;;;;;;5037534;28;20029;-88
2021/09/05 11:59:39;;;;;;;3.83;3.10;;;29.60;45.90;;;;;;5054858;28;20075;-88
2021/09/05 12:02:05;;;;;;;3.13;2.33;;;29.70;46.70;;;;;;5056992;28;20597;-89
2021/09/05 12:04:31;;;;;;;3.58;2.50;;;29.70;45.60;;;;;;5057359;28;20033;-89
2021/09/05 12:06:57;;;;;;;2.60;2.40;;;29.50;45.50;;;;;;5057967;28;20033;-85
2021/09/05 12:09:30;;;;;;;3.00;2.70;;;29.30;46.40;;;;;;5058268;28;20029;-87
2021/09/05 12:12:01;;;;;;;3.55;2.65;;;29.40;47.20;;;;;;5053357;28;20033;-81
2021/09/05 12:14:32;;;;;;;3.40;2.90;;;29.50;47.00;;;;;;5037913;28;20032;-81
2021/09/05 12:16:58;;;;;;;3.30;3.00;;;29.60;45.30;;;;;;5046062;28;20024;-82
2021/09/05 12:19:24;;;;;;;3.13;2.67;;;29.80;46.10;;;;;;5048188;28;20052;-83
2021/09/05 12:21:57;;;;;;;3.30;2.45;;;30.00;46.70;;;;;;5045454;28;20064;-86
2021/09/05 12:24:24;;;;;;;2.92;2.55;;;30.10;46.80;;;;;;5048075;28;20145;-82
2021/09/05 12:26:50;;;;;;;3.75;2.95;;;30.30;46.40;;;;;;5048979;28;20037;-83
2021/09/05 12:29:27;;;;;;;4.70;3.70;;;30.30;44.60;;;;;;5047121;28;20037;-91
2021/09/05 12:32:02;;;;;;;3.45;2.45;;;30.10;44.80;;;;;;5051193;28;20109;-89
2021/09/05 12:34:45;;;;;;;3.40;2.50;;;30.10;44.90;;;;;;5058288;28;20140;-84
2021/09/05 12:37:19;;;;;;;4.30;2.40;;;29.80;45.20;;;;;;5046218;28;20104;-86
2021/09/05 12:39:51;;;;;;;2.35;1.90;;;30.00;46.60;;;;;;5044533;28;20056;-85
2021/09/05 12:42:20;;;;;;;2.45;2.00;;;29.90;43.90;;;;;;5047227;28;20029;-80
2021/09/05 12:44:52;;;;;;;3.05;2.00;;;30.00;45.10;;;;;;5053203;28;20053;-80
2021/09/05 12:47:21;;;;;;;3.08;2.15;;;30.20;45.50;;;;;;5046049;28;20029;-81
2021/09/05 12:49:47;;;;;;;2.90;2.17;;;30.30;43.50;;;;;;5054766;28;20518;-80
2021/09/05 12:52:24;;;;;;;3.55;2.03;;;30.30;43.60;;;;;;5040177;28;20030;-80
2021/09/05 12:54:50;;;;;;;2.70;2.25;;;30.30;43.70;;;;;;5036809;28;20025;-79